createdAt,value
2019-02-12T00:01:02.836Z,28.35
2019-02-12T00:03:32.582Z,26.00
2019-02-12T00:06:02.312Z,27.77
2019-02-12T00:08:31.981Z,24.57
2019-02-12T00:11:01.772Z,23.00
2019-02-12T00:13:31.409Z,23.42
2019-02-12T00:16:01.094Z,23.00
2019-02-12T00:18:30.795Z,26.17
2019-02-12T00:21:08.776Z,25.92
2019-02-12T00:23:31.887Z,22.32
2019-02-12T00:26:01.585Z,22.95
2019-02-12T00:28:31.311Z,21.73
2019-02-12T00:31:01.036Z,20.62
2019-02-12T00:33:30.813Z,21.65
2019-02-12T00:36:00.460Z,23.10
2019-02-12T00:38:30.134Z,22.42
2019-02-12T00:40:59.886Z,21.70
2019-02-12T00:43:29.554Z,19.32
2019-02-12T00:45:59.286Z,20.23
2019-02-12T00:48:29.072Z,18.15
2019-02-12T00:50:58.722Z,20.40
2019-02-12T00:53:28.398Z,20.12
2019-02-12T00:55:58.159Z,20.48
2019-02-12T00:58:27.812Z,17.17
2019-02-12T01:00:57.546Z,19.48
2019-02-12T01:03:27.229Z,21.00
2019-02-12T01:05:56.951Z,17.67
2019-02-12T01:08:26.622Z,17.85
2019-02-12T01:10:56.489Z,17.73
2019-02-12T01:13:26.118Z,18.57
2019-02-12T01:15:55.796Z,17.15
2019-02-12T01:18:25.430Z,18.32
2019-02-12T01:20:55.111Z,15.60
2019-02-12T01:23:24.834Z,16.65
2019-02-12T01:25:54.429Z,16.85
2019-02-12T01:28:24.232Z,14.68
2019-02-12T01:30:53.780Z,17.42
2019-02-12T01:33:23.560Z,15.60
2019-02-12T01:35:53.207Z,16.40
2019-02-12T01:38:22.880Z,15.98
2019-02-12T01:40:52.518Z,16.15
2019-02-12T01:43:22.325Z,15.28
2019-02-12T01:45:52.051Z,14.40
2019-02-12T01:48:21.729Z,15.20
2019-02-12T01:50:51.577Z,13.50
2019-02-12T01:53:21.263Z,14.10
2019-02-12T01:55:50.964Z,16.48
2019-02-12T01:58:20.611Z,13.72
2019-02-12T02:00:50.277Z,14.45
2019-02-12T02:03:19.959Z,13.78
2019-02-12T02:05:49.814Z,12.10
2019-02-12T02:08:19.434Z,12.70
2019-02-12T02:10:49.132Z,14.00
2019-02-12T02:13:18.853Z,13.72
2019-02-12T02:15:48.554Z,12.53
2019-02-12T02:18:18.225Z,12.20
2019-02-12T02:20:47.972Z,13.80
2019-02-12T02:23:17.679Z,12.07
2019-02-12T02:25:47.314Z,11.33
2019-02-12T02:28:16.999Z,13.35
2019-02-12T02:30:46.668Z,12.50
2019-02-12T02:33:16.317Z,11.90
2019-02-12T02:35:45.957Z,12.30
2019-02-12T02:38:15.736Z,11.10
2019-02-12T02:40:45.541Z,10.40
2019-02-12T02:43:15.270Z,12.03
2019-02-12T02:45:44.971Z,15.13
2019-02-12T02:48:14.821Z,11.30
2019-02-12T02:50:44.509Z,10.93
2019-02-12T02:53:14.138Z,11.38
2019-02-12T02:55:43.824Z,11.75
2019-02-12T02:58:13.549Z,9.80
2019-02-12T03:00:43.238Z,13.20
2019-02-12T03:03:13.000Z,8.98
2019-02-12T03:05:42.564Z,12.03
2019-02-12T03:08:12.247Z,10.25
2019-02-12T03:10:41.883Z,11.30
2019-02-12T03:13:11.583Z,9.73
2019-02-12T03:15:41.330Z,8.98
2019-02-12T03:18:11.014Z,9.75
2019-02-12T03:20:40.686Z,9.58
2019-02-12T03:23:10.327Z,8.08
2019-02-12T03:25:39.976Z,9.00
2019-02-12T03:28:09.648Z,12.45
2019-02-12T03:30:39.365Z,9.73
2019-02-12T03:33:09.102Z,8.40
2019-02-12T03:35:38.793Z,8.55
2019-02-12T03:38:08.470Z,7.92
2019-02-12T03:40:38.210Z,9.08
2019-02-12T03:43:07.847Z,8.48
2019-02-12T03:45:37.530Z,10.98
2019-02-12T03:48:07.164Z,11.12
2019-02-12T03:50:36.991Z,9.10
2019-02-12T03:53:06.656Z,8.38
2019-02-12T03:55:36.461Z,7.40
2019-02-12T03:58:06.082Z,8.70
2019-02-12T04:00:35.714Z,7.83
2019-02-12T04:03:06.813Z,8.98
2019-02-12T04:05:37.428Z,8.30
2019-02-12T04:08:07.433Z,8.75
2019-02-12T04:10:37.212Z,9.35
2019-02-12T04:13:06.854Z,9.80
2019-02-12T04:15:36.593Z,6.42
2019-02-12T04:18:06.362Z,8.98
2019-02-12T04:20:36.046Z,7.53
2019-02-12T04:23:05.675Z,7.62
2019-02-12T04:25:35.468Z,7.05
2019-02-12T04:28:05.278Z,7.37
2019-02-12T04:30:34.974Z,7.08
2019-02-12T04:33:04.698Z,7.85
2019-02-12T04:35:34.334Z,6.42
2019-02-12T04:38:04.020Z,9.20
2019-02-12T04:40:33.743Z,6.72
2019-02-12T04:43:03.475Z,6.90
2019-02-12T04:45:33.080Z,10.75
2019-02-12T04:48:02.859Z,10.53
2019-02-12T04:50:32.498Z,8.28
2019-02-12T04:53:02.194Z,6.80
2019-02-12T04:55:31.877Z,6.62
2019-02-12T04:58:01.537Z,8.20
2019-02-12T05:00:31.346Z,7.28
2019-02-12T05:03:01.029Z,8.90
2019-02-12T05:05:30.623Z,6.90
2019-02-12T05:08:00.482Z,5.65
2019-02-12T05:10:32.473Z,5.60
2019-02-12T05:13:02.121Z,7.47
2019-02-12T05:15:31.855Z,8.93
2019-02-12T05:18:01.643Z,18.70
2019-02-12T05:20:31.604Z,6.15
2019-02-12T05:23:01.329Z,5.60
2019-02-12T05:25:31.215Z,6.80
2019-02-12T05:28:01.055Z,5.65
2019-02-12T05:30:30.872Z,4.62
2019-02-12T05:33:00.633Z,9.58
2019-02-12T05:35:30.399Z,4.83
2019-02-12T05:38:00.159Z,9.58
2019-02-12T05:40:29.897Z,4.53
2019-02-12T05:42:59.604Z,2.40
2019-02-12T05:45:29.292Z,8.75
2019-02-12T05:47:59.021Z,11.68
2019-02-12T05:50:28.702Z,8.30
2019-02-12T05:52:58.338Z,12.73
2019-02-12T05:55:28.050Z,7.87
2019-02-12T05:57:57.887Z,10.40
2019-02-12T06:00:29.791Z,5.28
2019-02-12T06:02:59.514Z,6.53
2019-02-12T06:05:29.894Z,4.97
2019-02-12T06:07:59.730Z,5.65
2019-02-12T06:10:29.557Z,6.50
2019-02-12T06:12:59.625Z,8.58
2019-02-12T06:15:29.422Z,7.72
2019-02-12T06:17:59.227Z,5.70
2019-02-12T06:20:28.917Z,7.17
2019-02-12T06:23:03.885Z,7.58
2019-02-12T06:25:29.986Z,7.17
2019-02-12T06:27:59.845Z,6.10
2019-02-12T06:30:30.193Z,8.83
2019-02-12T06:33:07.337Z,5.47
2019-02-12T06:35:31.288Z,9.40
2019-02-12T06:38:00.944Z,5.08
2019-02-12T06:40:30.619Z,4.12
2019-02-12T06:43:00.127Z,6.25
2019-02-12T06:45:29.828Z,4.22
2019-02-12T06:47:59.539Z,9.93
2019-02-12T06:50:29.400Z,8.05
2019-02-12T06:52:59.044Z,6.08
2019-02-12T06:55:28.760Z,7.85
2019-02-12T06:57:58.593Z,6.80
2019-02-12T07:00:28.200Z,4.08
2019-02-12T07:03:11.535Z,5.40
2019-02-12T07:05:46.913Z,3.80
2019-02-12T07:08:50.466Z,7.47
2019-02-12T07:11:51.049Z,5.65
2019-02-12T07:14:55.715Z,4.50
2019-02-12T07:17:56.878Z,3.58
2019-02-12T07:20:59.180Z,5.72
2019-02-12T07:24:04.410Z,7.25
2019-02-12T07:27:39.230Z,3.72
2019-02-12T07:30:43.092Z,3.80
2019-02-12T07:33:47.891Z,3.85
2019-02-12T07:37:03.372Z,4.92
2019-02-12T07:40:04.301Z,6.85
2019-02-12T07:43:02.114Z,4.70
2019-02-12T07:46:21.759Z,4.47
2019-02-12T07:49:27.822Z,4.62
2019-02-12T07:52:35.431Z,4.55
2019-02-12T07:56:10.159Z,4.47
2019-02-12T07:59:23.282Z,4.17
2019-02-12T08:02:41.143Z,3.60
2019-02-12T08:05:27.329Z,2.77
2019-02-12T08:08:52.903Z,4.00
2019-02-12T08:11:39.453Z,3.95
2019-02-12T08:14:47.055Z,3.52
2019-02-12T08:18:02.439Z,5.97
2019-02-12T08:21:22.930Z,5.40
2019-02-12T08:24:38.218Z,5.08
2019-02-12T08:27:18.664Z,4.35
2019-02-12T08:30:34.985Z,3.30
2019-02-12T08:33:57.865Z,4.45
2019-02-12T08:37:07.488Z,3.62
2019-02-12T08:40:00.436Z,3.95
2019-02-12T08:43:01.080Z,3.20
2019-02-12T08:46:03.359Z,3.05
2019-02-12T08:49:16.280Z,3.67
2019-02-12T08:52:22.025Z,3.52
2019-02-12T08:55:15.614Z,4.30
2019-02-12T08:58:44.255Z,6.97
2019-02-12T09:02:01.015Z,6.60
2019-02-12T09:04:54.787Z,11.65
2019-02-12T09:07:56.036Z,18.42
2019-02-12T09:11:19.204Z,26.15
2019-02-12T09:14:00.912Z,19.57
2019-02-12T09:17:17.122Z,22.37
2019-02-12T09:20:21.115Z,20.08
2019-02-12T09:23:22.321Z,20.00
2019-02-12T09:26:13.467Z,20.10
2019-02-12T09:29:48.524Z,20.52
2019-02-12T09:32:58.908Z,12.15
2019-02-12T09:36:15.670Z,11.40
2019-02-12T09:39:26.386Z,13.25
2019-02-12T09:42:41.462Z,11.12
2019-02-12T09:45:40.448Z,11.20
2019-02-12T09:48:52.384Z,9.90
2019-02-12T09:51:48.944Z,11.75
2019-02-12T09:54:54.125Z,15.60
2019-02-12T09:57:46.026Z,18.25
2019-02-12T10:00:59.903Z,18.40
2019-02-12T10:04:20.160Z,23.47
2019-02-12T10:07:14.095Z,20.20
2019-02-12T10:10:25.105Z,19.77
2019-02-12T10:13:15.701Z,16.57
2019-02-12T10:16:31.306Z,17.65
2019-02-12T10:19:19.900Z,16.15
2019-02-12T10:22:28.078Z,15.68
2019-02-12T10:25:17.012Z,14.45
2019-02-12T10:28:25.858Z,15.88
2019-02-12T10:31:34.960Z,17.27
2019-02-12T10:34:04.777Z,16.32
2019-02-12T10:36:34.609Z,14.15
2019-02-12T10:39:05.221Z,14.43
2019-02-12T10:41:34.913Z,19.00
2019-02-12T10:44:04.612Z,12.73
2019-02-12T10:46:34.523Z,16.65
2019-02-12T10:49:04.447Z,17.37
2019-02-12T10:51:34.185Z,15.50
2019-02-12T10:54:03.975Z,17.67
2019-02-12T10:56:33.587Z,14.68
2019-02-12T10:59:03.344Z,14.58
2019-02-12T11:01:32.995Z,16.73
2019-02-12T11:04:02.822Z,16.77
2019-02-12T11:06:32.518Z,15.70
2019-02-12T11:09:02.245Z,21.75
2019-02-12T11:11:31.948Z,17.20
2019-02-12T11:14:01.562Z,12.10
2019-02-12T11:16:31.421Z,14.20
2019-02-12T11:19:01.007Z,12.73
2019-02-12T11:21:30.818Z,11.73
2019-02-12T11:24:00.455Z,9.00
2019-02-12T11:26:30.118Z,9.43
2019-02-12T11:28:59.875Z,10.30
2019-02-12T11:31:29.726Z,8.70
2019-02-12T11:33:59.478Z,7.28
2019-02-12T11:36:29.261Z,9.65
2019-02-12T11:38:58.891Z,8.40
2019-02-12T11:41:28.577Z,10.30
2019-02-12T11:43:58.186Z,8.63
2019-02-12T11:46:27.965Z,9.63
2019-02-12T11:48:57.600Z,10.43
2019-02-12T11:51:27.242Z,10.38
2019-02-12T11:53:56.922Z,7.75
2019-02-12T11:56:26.630Z,7.08
2019-02-12T11:58:56.304Z,8.63
2019-02-12T12:01:28.921Z,8.28
2019-02-12T12:03:58.565Z,8.38
2019-02-12T12:06:28.255Z,8.05
2019-02-12T12:08:57.998Z,9.03
2019-02-12T12:11:27.593Z,6.25
2019-02-12T12:13:57.295Z,7.70
2019-02-12T12:16:26.927Z,7.22
2019-02-12T12:18:56.662Z,7.25
2019-02-12T12:21:26.447Z,6.55
2019-02-12T12:23:56.171Z,5.97
2019-02-12T12:26:25.732Z,8.63
2019-02-12T12:28:55.543Z,5.50
2019-02-12T12:31:25.273Z,6.20
2019-02-12T12:33:54.991Z,6.53
2019-02-12T12:36:24.676Z,6.00
2019-02-12T12:38:54.311Z,12.30
2019-02-12T12:41:24.028Z,6.42
2019-02-12T12:43:53.723Z,5.05
2019-02-12T12:46:23.417Z,6.20
2019-02-12T12:48:53.159Z,4.78
2019-02-12T12:51:22.840Z,4.90
2019-02-12T12:53:52.558Z,10.15
2019-02-12T12:56:22.297Z,6.87
2019-02-12T12:58:52.069Z,5.20
2019-02-12T13:01:21.882Z,6.90
2019-02-12T13:03:51.611Z,5.17
2019-02-12T13:06:21.242Z,6.60
2019-02-12T13:08:50.927Z,6.05
2019-02-12T13:11:20.656Z,5.10
2019-02-12T13:13:50.554Z,6.10
2019-02-12T13:16:20.224Z,5.03
2019-02-12T13:18:50.086Z,7.28
2019-02-12T13:21:19.706Z,6.20
2019-02-12T13:23:49.439Z,3.85
2019-02-12T13:26:19.246Z,5.47
2019-02-12T13:28:48.972Z,5.53
2019-02-12T13:31:19.099Z,5.83
2019-02-12T13:33:48.838Z,4.60
2019-02-12T13:36:18.492Z,5.05
2019-02-12T13:38:48.274Z,6.40
2019-02-12T13:41:18.017Z,4.17
2019-02-12T13:43:47.687Z,4.50
2019-02-12T13:46:17.440Z,3.35
2019-02-12T13:48:47.208Z,5.08
2019-02-12T13:51:16.981Z,3.72
2019-02-12T13:53:46.652Z,4.53
2019-02-12T13:56:16.480Z,6.45
2019-02-12T13:58:46.120Z,4.28
2019-02-12T14:01:15.935Z,4.70
2019-02-12T14:03:45.847Z,5.42
2019-02-12T14:06:15.525Z,3.92
2019-02-12T14:08:45.301Z,3.55
2019-02-12T14:11:15.082Z,5.50
2019-02-12T14:13:44.946Z,4.97
2019-02-12T14:16:14.681Z,4.15
2019-02-12T14:18:44.349Z,4.30
2019-02-12T14:21:14.161Z,5.15
2019-02-12T14:23:43.871Z,4.17
2019-02-12T14:26:13.595Z,3.35
2019-02-12T14:28:43.397Z,2.47
2019-02-12T14:31:13.219Z,4.00
2019-02-12T14:33:42.868Z,3.27
2019-02-12T14:36:12.647Z,4.15
2019-02-12T14:38:42.286Z,4.58
2019-02-12T14:41:11.964Z,3.62
2019-02-12T14:43:41.703Z,4.12
2019-02-12T14:46:11.410Z,5.10
2019-02-12T14:48:41.122Z,4.90
2019-02-12T14:51:10.822Z,3.02
2019-02-12T14:53:40.622Z,3.02
2019-02-12T14:56:11.563Z,4.87
2019-02-12T14:58:41.567Z,3.00
2019-02-12T15:01:11.221Z,4.37
2019-02-12T15:03:40.998Z,3.62
2019-02-12T15:06:10.724Z,3.52
2019-02-12T15:08:40.522Z,3.17
2019-02-12T15:11:10.221Z,4.67
2019-02-12T15:13:39.886Z,6.47
2019-02-12T15:16:09.544Z,3.85
2019-02-12T15:18:39.246Z,3.22
2019-02-12T15:21:08.867Z,3.12
2019-02-12T15:23:38.505Z,3.85
2019-02-12T15:26:08.382Z,3.30
2019-02-12T15:28:38.031Z,3.35
2019-02-12T15:31:07.870Z,3.98
2019-02-12T15:33:37.589Z,4.45
2019-02-12T15:36:07.340Z,2.72
2019-02-12T15:38:37.056Z,3.40
2019-02-12T15:41:06.758Z,4.50
2019-02-12T15:43:36.515Z,5.37
2019-02-12T15:46:06.186Z,8.15
2019-02-12T15:48:35.907Z,11.48
2019-02-12T15:51:05.762Z,14.78
2019-02-12T15:53:35.798Z,17.23
2019-02-12T15:56:05.611Z,20.40
2019-02-12T15:58:35.510Z,26.85
2019-02-12T16:01:06.070Z,27.98
2019-02-12T16:03:37.722Z,34.00
2019-02-12T16:06:07.392Z,36.75
2019-02-12T16:08:37.185Z,39.18
2019-02-12T16:11:06.808Z,45.75
2019-02-12T16:13:36.743Z,46.75
2019-02-12T16:16:07.807Z,50.75
2019-02-12T16:18:38.109Z,55.78
2019-02-12T16:21:08.182Z,62.78
2019-02-12T16:23:37.982Z,64.25
2019-02-12T16:26:07.810Z,66.70
2019-02-12T16:28:37.552Z,77.50
2019-02-12T16:31:07.333Z,74.92
2019-02-12T16:33:37.196Z,78.22
2019-02-12T16:36:07.055Z,71.60
2019-02-12T16:38:36.779Z,75.75
2019-02-12T16:41:06.486Z,71.15
2019-02-12T16:43:36.275Z,66.92
2019-02-12T16:46:10.102Z,67.20
2019-02-12T16:48:39.847Z,69.65
2019-02-12T16:51:09.628Z,65.87
2019-02-12T16:53:39.838Z,66.40
2019-02-12T16:56:09.492Z,62.80
2019-02-12T16:58:39.256Z,63.65
2019-02-12T17:01:09.016Z,61.18
2019-02-12T17:03:38.696Z,49.67
2019-02-12T17:06:09.444Z,53.90
2019-02-12T17:08:39.278Z,56.55
2019-02-12T17:11:09.120Z,53.80
2019-02-12T17:13:38.878Z,52.65
2019-02-12T17:16:09.100Z,49.50
2019-02-12T17:18:38.829Z,53.48
2019-02-12T17:21:08.666Z,49.48
2019-02-12T17:23:38.468Z,49.50
2019-02-12T17:26:16.130Z,45.90
2019-02-12T17:28:39.705Z,49.33
2019-02-12T17:31:09.506Z,54.33
2019-02-12T17:33:39.326Z,46.00
2019-02-12T17:36:09.088Z,46.10
2019-02-12T17:38:38.882Z,42.23
2019-02-12T17:41:08.764Z,42.48
2019-02-12T17:43:40.618Z,42.95
2019-02-12T17:46:10.532Z,43.08
2019-02-12T17:48:40.453Z,193.20
2019-02-12T17:51:10.629Z,232.85
2019-02-12T17:53:40.438Z,59.38
2019-02-12T17:56:10.651Z,261.40
2019-02-12T17:58:41.914Z,260.48
2019-02-12T18:01:11.917Z,264.72
2019-02-12T18:03:41.708Z,277.62
2019-02-12T18:06:11.678Z,194.72
2019-02-12T18:08:41.516Z,144.40
2019-02-12T18:11:11.364Z,153.65
2019-02-12T18:13:41.170Z,260.65
2019-02-12T18:16:10.692Z,288.98
2019-02-12T18:18:41.688Z,288.82
2019-02-12T18:21:11.539Z,281.02
2019-02-12T18:23:41.361Z,277.38
2019-02-12T18:26:11.240Z,283.82
2019-02-12T18:28:40.996Z,274.23
2019-02-12T18:31:10.866Z,269.77
2019-02-12T18:33:41.082Z,257.23
2019-02-12T18:36:10.862Z,256.13
2019-02-12T18:38:40.674Z,249.62
2019-02-12T18:41:11.191Z,248.90
2019-02-12T18:43:42.000Z,266.33
2019-02-12T18:46:12.202Z,246.47
2019-02-12T18:48:42.079Z,243.85
2019-02-12T18:51:12.090Z,244.20
2019-02-12T18:53:41.976Z,249.55
2019-02-12T18:56:12.193Z,265.75
2019-02-12T18:58:42.103Z,240.85
2019-02-12T19:01:11.846Z,243.67
2019-02-12T19:03:41.722Z,247.10
2019-02-12T19:06:11.534Z,239.72
2019-02-12T19:08:41.428Z,238.77
2019-02-12T19:11:11.608Z,231.95
2019-02-12T19:13:41.594Z,237.82
2019-02-12T19:16:11.385Z,236.85
2019-02-12T19:18:41.309Z,219.72
2019-02-12T19:21:12.612Z,233.93
2019-02-12T19:23:42.931Z,223.62
2019-02-12T19:26:12.803Z,227.55
2019-02-12T19:28:45.078Z,215.70
2019-02-12T19:31:14.966Z,223.25
2019-02-12T19:33:46.914Z,225.47
2019-02-12T19:36:16.858Z,225.93
2019-02-12T19:38:47.691Z,225.82
2019-02-12T19:41:17.258Z,213.47
2019-02-12T19:43:47.564Z,206.57
2019-02-12T19:46:17.493Z,205.95
2019-02-12T19:48:47.404Z,221.05
2019-02-12T19:51:19.131Z,220.25
2019-02-12T19:53:48.866Z,211.45
2019-02-12T19:56:18.611Z,217.57
2019-02-12T19:58:48.712Z,214.70
2019-02-12T20:01:18.628Z,203.77
2019-02-12T20:03:48.495Z,212.35
2019-02-12T20:06:18.375Z,198.68
2019-02-12T20:08:48.392Z,209.20
2019-02-12T20:11:20.499Z,202.82
2019-02-12T20:13:50.361Z,198.02
2019-02-12T20:16:20.325Z,195.55
2019-02-12T20:18:50.260Z,206.55
2019-02-12T20:21:20.049Z,185.88
2019-02-12T20:23:50.334Z,200.45
2019-02-12T20:26:20.125Z,186.70
2019-02-12T20:28:52.549Z,173.47
2019-02-12T20:31:24.086Z,186.88
2019-02-12T20:33:57.151Z,176.55
2019-02-12T20:36:25.867Z,177.70
2019-02-12T20:38:56.223Z,175.45
2019-02-12T20:41:26.042Z,162.05
2019-02-12T20:43:56.981Z,167.75
2019-02-12T20:46:29.367Z,169.40
2019-02-12T20:48:59.264Z,157.25
2019-02-12T20:51:29.274Z,159.97
2019-02-12T20:53:59.444Z,161.77
2019-02-12T20:56:29.338Z,166.57
2019-02-12T20:58:59.086Z,165.47
2019-02-12T21:01:28.951Z,161.10
2019-02-12T21:03:58.701Z,149.35
2019-02-12T21:06:28.578Z,148.07
2019-02-12T21:09:00.839Z,154.80
2019-02-12T21:11:33.050Z,154.65
2019-02-12T21:14:03.032Z,150.60
2019-02-12T21:16:32.972Z,152.45
2019-02-12T21:19:03.812Z,149.42
2019-02-12T21:21:33.704Z,147.35
2019-02-12T21:24:03.329Z,140.55
2019-02-12T21:26:33.227Z,150.68
2019-02-12T21:29:02.908Z,139.00
2019-02-12T21:31:32.636Z,149.32
2019-02-12T21:34:02.297Z,142.18
2019-02-12T21:36:31.966Z,139.35
2019-02-12T21:39:01.607Z,142.95
2019-02-12T21:41:31.289Z,131.63
2019-02-12T21:44:01.184Z,139.70
2019-02-12T21:46:30.900Z,138.43
2019-02-12T21:49:00.619Z,138.52
2019-02-12T21:51:30.331Z,131.25
2019-02-12T21:54:00.155Z,130.20
2019-02-12T21:56:29.913Z,126.62
2019-02-12T21:58:59.777Z,135.20
2019-02-12T22:01:29.482Z,133.65
2019-02-12T22:03:59.351Z,135.85
2019-02-12T22:06:29.114Z,133.20
2019-02-12T22:08:58.836Z,129.85
2019-02-12T22:11:28.453Z,130.87
2019-02-12T22:13:58.157Z,116.42
2019-02-12T22:16:27.758Z,129.47
2019-02-12T22:18:57.507Z,123.50
2019-02-12T22:21:27.225Z,130.97
2019-02-12T22:23:57.090Z,125.75
2019-02-12T22:26:26.751Z,119.60
2019-02-12T22:28:56.419Z,118.95
2019-02-12T22:31:26.332Z,121.80
2019-02-12T22:33:56.140Z,114.52
2019-02-12T22:36:25.751Z,119.33
2019-02-12T22:38:55.472Z,119.30
2019-02-12T22:41:25.167Z,109.92
2019-02-12T22:43:54.793Z,109.57
2019-02-12T22:46:24.621Z,108.22
2019-02-12T22:48:54.443Z,107.97
2019-02-12T22:51:24.109Z,109.57
2019-02-12T22:53:53.800Z,110.25
2019-02-12T22:56:23.536Z,107.63
2019-02-12T22:58:53.268Z,107.90
2019-02-12T23:01:34.971Z,104.40
2019-02-12T23:04:04.750Z,99.58
2019-02-12T23:06:34.496Z,102.32
2019-02-12T23:09:06.376Z,99.65
2019-02-12T23:11:36.278Z,95.22
2019-02-12T23:14:05.982Z,94.32
2019-02-12T23:16:35.762Z,99.72
2019-02-12T23:19:05.506Z,96.40
2019-02-12T23:21:35.322Z,100.72
2019-02-12T23:24:04.924Z,96.30
2019-02-12T23:26:34.607Z,91.82
2019-02-12T23:29:04.246Z,89.87
2019-02-12T23:31:33.942Z,92.88
2019-02-12T23:34:03.637Z,92.17
2019-02-12T23:36:33.348Z,90.92
2019-02-12T23:39:04.084Z,89.03
2019-02-12T23:41:33.797Z,83.40
2019-02-12T23:44:03.526Z,91.80
2019-02-12T23:46:33.234Z,85.30
2019-02-12T23:49:02.848Z,81.32
2019-02-12T23:51:32.637Z,88.52
2019-02-12T23:54:02.376Z,88.05
2019-02-12T23:56:32.154Z,82.33
2019-02-12T23:59:01.908Z,85.97
